Time;durP1;ratioP1;P1;durP2;ratioP2;P2;SDS_P1;SDS_P2;PMS_P1;PMS_P2;Temp;Humidity;BMP_temperature;BMP_pressure;BME280_temperature;BME280_humidity;BME280_pressure;Samples;Min_cycle;Max_cycle;Signal;HPM_P1;HPM_P2
2022/12/05 00:03:04;;;;;;;17.63;10.93;;;;;;;;;;6599296;28;20187;-90
2022/12/05 00:06:15;;;;;;;22.43;13.97;;;;;;;;;;6580496;28;20180;-90
2022/12/05 00:09:26;;;;;;;23.77;15.10;;;;;;;;;;6580905;28;20192;-90
2022/12/05 00:12:36;;;;;;;18.00;11.43;;;;;;;;;;6598391;28;20242;-91
2022/12/05 00:15:46;;;;;;;18.67;12.43;;;;;;;;;;6598538;28;20607;-91
2022/12/05 00:19:00;;;;;;;20.97;12.67;;;;;;;;;;6598577;28;20179;-90
2022/12/05 00:22:10;;;;;;;19.63;12.07;;;;;;;;;;6581159;28;20203;-90
2022/12/05 00:25:21;;;;;;;18.43;11.80;;;;;;;;;;6598071;28;20172;-90
2022/12/05 00:28:32;;;;;;;14.97;9.77;;;;;;;;;;6597587;28;20171;-90
2022/12/05 00:31:42;;;;;;;17.77;11.30;;;;;;;;;;6580220;28;20242;-90
2022/12/05 00:34:52;;;;;;;16.00;10.97;;;;;;;;;;6579692;28;20235;-91
2022/12/05 00:38:04;;;;;;;17.67;12.63;;;;;;;;;;6579404;28;20228;-90
2022/12/05 00:41:16;;;;;;;15.10;9.90;;;;;;;;;;6597644;28;20210;-91
2022/12/05 00:44:26;;;;;;;20.70;12.50;;;;;;;;;;6599866;28;20185;-90
2022/12/05 00:47:36;;;;;;;21.53;13.80;;;;;;;;;;6600080;28;20164;-90
2022/12/05 00:50:46;;;;;;;24.53;15.53;;;;;;;;;;6597893;28;20657;-91
2022/12/05 00:53:58;;;;;;;21.13;14.27;;;;;;;;;;6597195;28;20168;-90
2022/12/05 00:57:08;;;;;;;19.07;12.83;;;;;;;;;;6598405;28;20618;-90
2022/12/05 01:00:19;;;;;;;18.67;11.23;;;;;;;;;;6597225;28;20212;-91
2022/12/05 01:03:29;;;;;;;20.57;11.97;;;;;;;;;;6597581;28;20200;-90
2022/12/05 01:06:40;;;;;;;19.13;12.10;;;;;;;;;;6596843;28;20326;-91
2022/12/05 01:09:51;;;;;;;17.53;11.23;;;;;;;;;;6596463;28;20525;-91
2022/12/05 01:13:01;;;;;;;19.97;12.10;;;;;;;;;;6595894;28;20267;-92
2022/12/05 01:16:22;;;;;;;19.80;12.90;;;;;;;;;;6596397;28;20208;-91
2022/12/05 01:19:32;;;;;;;18.10;10.80;;;;;;;;;;6593446;28;20234;-91
2022/12/05 01:22:42;;;;;;;17.10;10.30;;;;;;;;;;6595904;28;20259;-91
2022/12/05 01:25:52;;;;;;;19.77;12.60;;;;;;;;;;6595633;28;20175;-91
2022/12/05 01:29:03;;;;;;;19.97;11.70;;;;;;;;;;6595683;28;20173;-91
2022/12/05 01:32:13;;;;;;;17.80;12.37;;;;;;;;;;6595506;28;20224;-91
2022/12/05 01:35:24;;;;;;;17.87;10.63;;;;;;;;;;6595780;28;20635;-91
2022/12/05 01:38:34;;;;;;;18.60;12.37;;;;;;;;;;6595605;28;20203;-91
2022/12/05 01:41:45;;;;;;;17.17;11.13;;;;;;;;;;6595444;28;20203;-91
2022/12/05 01:45:11;;;;;;;17.53;11.27;;;;;;;;;;6577666;28;20242;-91
2022/12/05 01:48:24;;;;;;;17.33;11.30;;;;;;;;;;6593457;28;20180;-92
2022/12/05 01:51:36;;;;;;;17.00;10.70;;;;;;;;;;6594840;28;20168;-91
2022/12/05 01:54:47;;;;;;;19.73;11.83;;;;;;;;;;6594442;28;20176;-92
2022/12/05 01:57:59;;;;;;;16.37;10.90;;;;;;;;;;6577640;28;20518;-91
2022/12/05 02:01:11;;;;;;;13.37;9.73;;;;;;;;;;6577328;28;20220;-91
2022/12/05 02:04:21;;;;;;;17.67;11.90;;;;;;;;;;6594835;28;20214;-90
2022/12/05 02:07:32;;;;;;;15.00;10.07;;;;;;;;;;6577336;28;20164;-91
2022/12/05 02:10:47;;;;;;;19.20;12.17;;;;;;;;;;6594791;28;20555;-91
2022/12/05 02:14:01;;;;;;;22.00;13.50;;;;;;;;;;6592080;28;20528;-91
2022/12/05 02:17:14;;;;;;;17.23;10.70;;;;;;;;;;6577329;28;20276;-91
2022/12/05 02:20:33;;;;;;;20.57;12.17;;;;;;;;;;6577160;28;20327;-91
2022/12/05 02:23:44;;;;;;;17.17;12.33;;;;;;;;;;6575411;28;20177;-90
2022/12/05 02:27:12;;;;;;;19.30;12.77;;;;;;;;;;6577135;28;20176;-91
2022/12/05 02:30:23;;;;;;;17.40;11.97;;;;;;;;;;6570409;28;20538;-91
2022/12/05 02:33:39;;;;;;;30.67;17.90;;;;;;;;;;6594245;28;20307;-91
2022/12/05 02:36:56;;;;;;;28.13;19.00;;;;;;;;;;6576855;28;20203;-91
2022/12/05 02:40:27;;;;;;;22.37;16.93;;;;;;;;;;6594791;28;20205;-91
2022/12/05 02:43:40;;;;;;;28.00;20.87;;;;;;;;;;6580040;28;20180;-90
2022/12/05 02:46:51;;;;;;;19.73;12.90;;;;;;;;;;6594678;28;20176;-90
2022/12/05 02:50:02;;;;;;;20.87;12.83;;;;;;;;;;6577004;28;20181;-90
2022/12/05 02:53:13;;;;;;;21.13;13.17;;;;;;;;;;6595353;28;20651;-91
2022/12/05 02:56:24;;;;;;;15.27;10.17;;;;;;;;;;6594923;28;20627;-91
2022/12/05 02:59:35;;;;;;;18.13;12.93;;;;;;;;;;6595506;28;20224;-90
2022/12/05 03:02:47;;;;;;;17.80;12.13;;;;;;;;;;6595189;28;20169;-90
2022/12/05 03:06:03;;;;;;;16.87;10.73;;;;;;;;;;6580831;28;20173;-90
2022/12/05 03:09:18;;;;;;;19.47;12.93;;;;;;;;;;6582056;28;20267;-91
2022/12/05 03:12:32;;;;;;;17.23;10.87;;;;;;;;;;6599756;28;20169;-90
2022/12/05 03:15:45;;;;;;;19.13;13.30;;;;;;;;;;6599344;28;20165;-91
2022/12/05 03:18:59;;;;;;;14.53;10.93;;;;;;;;;;6599923;28;20201;-91
2022/12/05 03:22:15;;;;;;;31.50;19.57;;;;;;;;;;6599142;28;20202;-91
2022/12/05 03:25:30;;;;;;;16.80;11.27;;;;;;;;;;6599882;28;20220;-91
2022/12/05 03:28:46;;;;;;;16.73;11.73;;;;;;;;;;6599353;28;20180;-91
2022/12/05 03:32:02;;;;;;;22.30;14.23;;;;;;;;;;6598974;28;20540;-90
2022/12/05 03:35:30;;;;;;;16.70;12.10;;;;;;;;;;6599844;28;20256;-91
2022/12/05 03:38:52;;;;;;;21.67;13.80;;;;;;;;;;6598745;28;20274;-91
2022/12/05 03:42:03;;;;;;;19.87;11.77;;;;;;;;;;6581128;28;20212;-91
2022/12/05 03:45:16;;;;;;;12.53;8.43;;;;;;;;;;6599245;28;20169;-90
2022/12/05 03:48:31;;;;;;;21.90;13.57;;;;;;;;;;6598862;28;20527;-90
2022/12/05 03:51:57;;;;;;;19.93;13.37;;;;;;;;;;6599238;28;20195;-91
2022/12/05 03:55:09;;;;;;;19.30;12.33;;;;;;;;;;6599103;28;20307;-90
2022/12/05 03:58:26;;;;;;;17.77;11.93;;;;;;;;;;6598584;28;20180;-90
2022/12/05 04:01:38;;;;;;;35.47;22.20;;;;;;;;;;6580727;28;20243;-90
2022/12/05 04:04:53;;;;;;;24.77;15.77;;;;;;;;;;6598086;28;20268;-90
2022/12/05 04:08:06;;;;;;;20.77;13.23;;;;;;;;;;6598486;28;20238;-91
2022/12/05 04:11:19;;;;;;;20.97;15.13;;;;;;;;;;6598010;28;20180;-91
2022/12/05 04:14:36;;;;;;;38.63;22.10;;;;;;;;;;6580439;28;20181;-91
2022/12/05 04:17:56;;;;;;;30.23;17.90;;;;;;;;;;6597568;28;20176;-91
2022/12/05 04:28:25;;;;;;;33.97;21.10;;;;;;;;;;6598279;28;20168;-91
2022/12/05 04:31:42;;;;;;;26.93;16.37;;;;;;;;;;6548015;28;20231;-90
2022/12/05 04:34:56;;;;;;;21.50;14.03;;;;;;;;;;6598648;28;20367;-90
2022/12/05 04:38:09;;;;;;;20.90;13.43;;;;;;;;;;6597709;28;20202;-91
2022/12/05 04:41:21;;;;;;;25.30;15.87;;;;;;;;;;6597550;28;20208;-91
2022/12/05 04:44:33;;;;;;;28.17;18.27;;;;;;;;;;6597307;28;20242;-90
2022/12/05 04:47:46;;;;;;;22.73;15.13;;;;;;;;;;6597471;28;20176;-90
2022/12/05 04:50:57;;;;;;;22.87;13.87;;;;;;;;;;6579589;28;20536;-90
2022/12/05 04:54:10;;;;;;;32.77;19.23;;;;;;;;;;6579817;28;20172;-92
2022/12/05 04:57:25;;;;;;;54.20;30.57;;;;;;;;;;6597359;28;20164;-90
2022/12/05 05:00:45;;;;;;;72.27;36.87;;;;;;;;;;6597102;28;20239;-91
2022/12/05 05:03:56;;;;;;;39.30;21.53;;;;;;;;;;6597340;28;20187;-91
2022/12/05 05:07:07;;;;;;;47.83;23.80;;;;;;;;;;6579216;28;20180;-90
2022/12/05 05:10:21;;;;;;;28.50;17.97;;;;;;;;;;6597236;28;20176;-90
2022/12/05 05:13:31;;;;;;;23.90;14.60;;;;;;;;;;6578575;28;20332;-91
2022/12/05 05:16:43;;;;;;;22.13;14.57;;;;;;;;;;6596662;28;20168;-90
2022/12/05 05:20:22;;;;;;;25.10;15.97;;;;;;;;;;6596671;28;20211;-91
2022/12/05 05:23:24;;;;;;;24.63;14.60;;;;;;;;;;6595953;28;20226;-91
2022/12/05 05:26:36;;;;;;;21.37;13.63;;;;;;;;;;6596683;28;20168;-91
2022/12/05 05:29:46;;;;;;;21.60;14.03;;;;;;;;;;6578648;28;20176;-90
2022/12/05 05:32:58;;;;;;;55.87;27.87;;;;;;;;;;6596544;28;20231;-90
2022/12/05 05:36:09;;;;;;;33.80;22.30;;;;;;;;;;6596597;28;20172;-91
2022/12/05 05:39:20;;;;;;;25.57;14.90;;;;;;;;;;6596071;28;20254;-90
2022/12/05 05:42:30;;;;;;;23.67;14.80;;;;;;;;;;6597214;28;20263;-91
2022/12/05 05:45:40;;;;;;;27.97;16.07;;;;;;;;;;6577902;28;20252;-90
2022/12/05 05:48:51;;;;;;;26.57;15.73;;;;;;;;;;6595813;28;20187;-91
2022/12/05 05:52:01;;;;;;;19.63;12.90;;;;;;;;;;6596285;28;20172;-90
2022/12/05 05:55:11;;;;;;;26.80;17.40;;;;;;;;;;6596041;28;20168;-91
2022/12/05 05:58:22;;;;;;;25.50;17.23;;;;;;;;;;6595705;28;20210;-91
2022/12/05 06:01:32;;;;;;;24.93;14.43;;;;;;;;;;6595508;28;20196;-90
2022/12/05 06:04:42;;;;;;;22.13;13.80;;;;;;;;;;6595858;28;20650;-90
2022/12/05 06:07:53;;;;;;;24.87;16.77;;;;;;;;;;6578041;28;20267;-91
2022/12/05 06:11:04;;;;;;;15.77;9.50;;;;;;;;;;6595766;28;20741;-90
2022/12/05 06:14:14;;;;;;;24.33;15.43;;;;;;;;;;6577965;28;20200;-90
2022/12/05 06:17:25;;;;;;;22.90;14.80;;;;;;;;;;6577908;28;20176;-90
2022/12/05 06:20:35;;;;;;;27.30;16.40;;;;;;;;;;6595830;28;20593;-90
2022/12/05 06:23:45;;;;;;;24.00;14.57;;;;;;;;;;6578231;28;20177;-90
2022/12/05 06:26:56;;;;;;;23.00;15.77;;;;;;;;;;6577823;28;20184;-90
2022/12/05 06:30:06;;;;;;;25.30;14.87;;;;;;;;;;6577931;28;20177;-90
2022/12/05 06:33:17;;;;;;;24.30;15.90;;;;;;;;;;6595978;28;20281;-91
2022/12/05 06:36:28;;;;;;;19.27;11.87;;;;;;;;;;6577390;28;20230;-91
2022/12/05 06:39:38;;;;;;;23.57;14.77;;;;;;;;;;6596801;28;20216;-91
2022/12/05 06:42:49;;;;;;;18.27;13.67;;;;;;;;;;6600320;28;20226;-90
2022/12/05 06:46:02;;;;;;;23.13;15.10;;;;;;;;;;6601003;28;20175;-91
2022/12/05 06:49:13;;;;;;;23.07;15.77;;;;;;;;;;6600634;28;20172;-90
2022/12/05 06:52:24;;;;;;;26.30;16.77;;;;;;;;;;6599940;28;20222;-90
2022/12/05 06:55:34;;;;;;;15.83;10.17;;;;;;;;;;6600544;28;20534;-90
2022/12/05 06:58:46;;;;;;;24.87;15.50;;;;;;;;;;6599808;28;20165;-90
2022/12/05 07:01:57;;;;;;;21.93;14.20;;;;;;;;;;6599902;28;20200;-90
2022/12/05 07:05:08;;;;;;;25.00;15.77;;;;;;;;;;6600633;28;20267;-90
2022/12/05 07:08:18;;;;;;;24.37;15.43;;;;;;;;;;6582052;28;20203;-90
2022/12/05 07:11:28;;;;;;;23.03;14.03;;;;;;;;;;6599357;28;20227;-90
2022/12/05 07:14:39;;;;;;;24.33;15.07;;;;;;;;;;6580529;28;20176;-91
2022/12/05 07:17:49;;;;;;;24.13;14.67;;;;;;;;;;6578692;28;20180;-90
2022/12/05 07:21:00;;;;;;;25.83;14.20;;;;;;;;;;6580894;28;20200;-91
2022/12/05 07:24:11;;;;;;;28.90;16.63;;;;;;;;;;6598789;28;20203;-90
2022/12/05 07:27:22;;;;;;;22.17;13.57;;;;;;;;;;6598601;28;20164;-91
2022/12/05 07:30:32;;;;;;;21.90;13.90;;;;;;;;;;6598698;28;20619;-90
2022/12/05 07:33:43;;;;;;;25.80;16.43;;;;;;;;;;6580428;28;20228;-91
2022/12/05 07:36:53;;;;;;;23.60;14.07;;;;;;;;;;6598983;28;20226;-92
2022/12/05 07:40:04;;;;;;;20.73;13.20;;;;;;;;;;6598005;28;20797;-91
2022/12/05 07:43:14;;;;;;;23.93;15.67;;;;;;;;;;6580558;28;20176;-90
2022/12/05 07:46:25;;;;;;;28.47;16.33;;;;;;;;;;6572276;28;20177;-90
2022/12/05 07:49:36;;;;;;;24.43;13.77;;;;;;;;;;6597716;28;20587;-91
2022/12/05 07:52:46;;;;;;;29.13;17.80;;;;;;;;;;6597189;28;20227;-90
2022/12/05 07:56:00;;;;;;;19.60;13.00;;;;;;;;;;6580208;28;20642;-90
2022/12/05 07:59:11;;;;;;;27.73;17.23;;;;;;;;;;6580109;28;20635;-91
2022/12/05 08:02:21;;;;;;;29.27;18.27;;;;;;;;;;6597573;28;20226;-91
2022/12/05 08:05:32;;;;;;;39.30;25.63;;;;;;;;;;6598005;28;20251;-90
2022/12/05 08:08:43;;;;;;;29.73;19.30;;;;;;;;;;6596819;28;20165;-91
2022/12/05 08:11:53;;;;;;;31.40;19.53;;;;;;;;;;6597704;28;20168;-91
2022/12/05 08:15:04;;;;;;;28.87;16.47;;;;;;;;;;6597621;28;20179;-91
2022/12/05 08:18:14;;;;;;;34.70;20.77;;;;;;;;;;6579744;28;20263;-91
2022/12/05 08:21:25;;;;;;;33.83;20.97;;;;;;;;;;6597390;28;20199;-91
2022/12/05 08:24:35;;;;;;;37.90;24.50;;;;;;;;;;6597397;28;20194;-90
2022/12/05 08:27:45;;;;;;;30.67;21.27;;;;;;;;;;6579508;28;20164;-90
2022/12/05 08:31:01;;;;;;;38.50;24.17;;;;;;;;;;6596770;28;20240;-90
2022/12/05 08:34:12;;;;;;;25.60;16.80;;;;;;;;;;6596515;28;20713;-91
2022/12/05 08:37:22;;;;;;;35.23;19.37;;;;;;;;;;6579147;28;20192;-91
2022/12/05 08:40:33;;;;;;;32.10;17.53;;;;;;;;;;6596390;28;20261;-91
2022/12/05 08:43:43;;;;;;;31.83;18.30;;;;;;;;;;6596811;28;20169;-90
2022/12/05 08:46:54;;;;;;;25.30;15.83;;;;;;;;;;6596639;28;20168;-91
2022/12/05 08:50:04;;;;;;;31.20;20.17;;;;;;;;;;6596810;28;20263;-90
2022/12/05 08:53:15;;;;;;;28.00;17.27;;;;;;;;;;6597214;28;20172;-90
2022/12/05 08:56:25;;;;;;;26.43;16.70;;;;;;;;;;6597117;28;20168;-90
2022/12/05 08:59:35;;;;;;;27.93;17.07;;;;;;;;;;6597328;28;20223;-90
2022/12/05 09:02:49;;;;;;;29.23;18.10;;;;;;;;;;6596606;28;20176;-90
2022/12/05 09:06:10;;;;;;;35.47;21.10;;;;;;;;;;6597243;28;20183;-90
2022/12/05 09:09:20;;;;;;;34.77;19.57;;;;;;;;;;6596856;28;20173;-90
2022/12/05 09:12:30;;;;;;;23.80;14.73;;;;;;;;;;6596421;28;20223;-90
2022/12/05 09:15:40;;;;;;;27.57;16.70;;;;;;;;;;6596994;28;20299;-90
2022/12/05 09:18:51;;;;;;;21.93;14.53;;;;;;;;;;6596494;28;20176;-90
2022/12/05 09:22:03;;;;;;;38.23;22.63;;;;;;;;;;6596123;28;20208;-90
2022/12/05 09:25:14;;;;;;;31.37;19.50;;;;;;;;;;6596636;28;20184;-90
2022/12/05 09:28:24;;;;;;;25.00;15.40;;;;;;;;;;6596468;28;20259;-90
2022/12/05 09:31:35;;;;;;;28.20;17.27;;;;;;;;;;6597151;28;20230;-90
2022/12/05 09:34:46;;;;;;;26.37;16.00;;;;;;;;;;6578334;28;20236;-90
2022/12/05 09:37:56;;;;;;;29.10;17.17;;;;;;;;;;6578455;28;20242;-90
2022/12/05 09:41:20;;;;;;;32.97;19.37;;;;;;;;;;6596290;28;20604;-90
2022/12/05 09:44:43;;;;;;;31.53;19.77;;;;;;;;;;6595717;28;20225;-91
2022/12/05 09:47:56;;;;;;;23.10;15.73;;;;;;;;;;6577835;28;20184;-91
2022/12/05 09:51:09;;;;;;;37.30;21.80;;;;;;;;;;6595186;28;20173;-90
2022/12/05 09:54:20;;;;;;;25.50;17.37;;;;;;;;;;6595503;28;20526;-90
2022/12/05 09:57:35;;;;;;;25.87;14.70;;;;;;;;;;6578223;28;20705;-89
2022/12/05 10:00:46;;;;;;;28.83;18.30;;;;;;;;;;6572739;28;20243;-89
2022/12/05 10:04:00;;;;;;;25.77;16.70;;;;;;;;;;6576354;28;20183;-89
2022/12/05 10:07:22;;;;;;;22.53;15.70;;;;;;;;;;6587069;28;20176;-89
2022/12/05 10:10:39;;;;;;;30.73;19.10;;;;;;;;;;6584784;28;20557;-89
2022/12/05 10:14:01;;;;;;;36.03;23.43;;;;;;;;;;6578432;28;20177;-89
2022/12/05 10:17:38;;;;;;;31.23;21.93;;;;;;;;;;6575872;28;20199;-90
2022/12/05 10:21:07;;;;;;;33.43;21.37;;;;;;;;;;6551720;28;20288;-90
2022/12/05 10:24:20;;;;;;;42.20;27.37;;;;;;;;;;6566506;28;20219;-90
2022/12/05 10:27:34;;;;;;;22.43;14.97;;;;;;;;;;6600443;28;20168;-89
2022/12/05 10:30:46;;;;;;;30.60;17.93;;;;;;;;;;6581871;28;20518;-89
2022/12/05 10:34:00;;;;;;;28.57;17.23;;;;;;;;;;6600071;28;20228;-90
2022/12/05 10:37:14;;;;;;;24.50;15.27;;;;;;;;;;6599775;28;20231;-90
2022/12/05 10:40:33;;;;;;;25.27;15.57;;;;;;;;;;6581883;28;20196;-89
2022/12/05 10:43:44;;;;;;;21.73;13.83;;;;;;;;;;6578996;28;20259;-89
2022/12/05 10:46:54;;;;;;;29.00;19.00;;;;;;;;;;6578718;28;20184;-90
2022/12/05 10:50:07;;;;;;;24.60;17.30;;;;;;;;;;6579247;28;20292;-89
2022/12/05 10:53:28;;;;;;;30.80;17.63;;;;;;;;;;6579336;28;20207;-90
2022/12/05 10:56:49;;;;;;;28.80;18.97;;;;;;;;;;6591915;28;20214;-90
2022/12/05 11:00:14;;;;;;;36.70;21.93;;;;;;;;;;6578858;28;20216;-90
2022/12/05 11:03:28;;;;;;;32.80;18.23;;;;;;;;;;6598327;28;20183;-90
2022/12/05 11:06:47;;;;;;;40.13;21.87;;;;;;;;;;6581212;28;20275;-89
2022/12/05 11:10:00;;;;;;;45.17;27.87;;;;;;;;;;6571770;28;20165;-90
2022/12/05 11:13:14;;;;;;;30.47;19.57;;;;;;;;;;6596849;28;20168;-90
2022/12/05 11:16:30;;;;;;;27.27;17.13;;;;;;;;;;6596587;28;20204;-89
2022/12/05 11:19:40;;;;;;;38.10;21.57;;;;;;;;;;6598337;28;20351;-89
2022/12/05 11:22:52;;;;;;;33.43;21.43;;;;;;;;;;6577925;28;20165;-90
2022/12/05 11:26:02;;;;;;;27.73;17.07;;;;;;;;;;6599157;28;20173;-89
2022/12/05 11:29:29;;;;;;;24.67;15.23;;;;;;;;;;6598054;28;20184;-89
2022/12/05 11:32:39;;;;;;;34.37;21.10;;;;;;;;;;6596690;28;20224;-89
2022/12/05 11:36:02;;;;;;;30.87;19.57;;;;;;;;;;6580769;28;20169;-89
2022/12/05 11:39:13;;;;;;;33.90;19.77;;;;;;;;;;6572739;28;20351;-89
2022/12/05 11:42:39;;;;;;;37.60;22.70;;;;;;;;;;6579940;28;20306;-89
2022/12/05 11:45:55;;;;;;;29.97;18.93;;;;;;;;;;6579276;28;20187;-89
2022/12/05 11:49:05;;;;;;;30.70;18.27;;;;;;;;;;6580793;28;20531;-89
2022/12/05 11:52:22;;;;;;;25.57;17.00;;;;;;;;;;6598258;28;20172;-89
2022/12/05 11:55:37;;;;;;;37.37;22.43;;;;;;;;;;6577516;28;20185;-89
2022/12/05 11:58:47;;;;;;;58.37;30.50;;;;;;;;;;6594430;28;20175;-89
2022/12/05 12:02:18;;;;;;;35.70;20.93;;;;;;;;;;6596312;28;20200;-89
2022/12/05 12:05:31;;;;;;;31.00;18.13;;;;;;;;;;6574540;28;20207;-89
2022/12/05 12:08:57;;;;;;;39.87;25.40;;;;;;;;;;6596046;28;20645;-89
2022/12/05 12:12:15;;;;;;;28.60;17.60;;;;;;;;;;6594413;28;20203;-89
2022/12/05 12:16:04;;;;;;;38.87;22.50;;;;;;;;;;6595488;28;20243;-89
2022/12/05 12:19:40;;;;;;;34.90;21.27;;;;;;;;;;6472597;29;20191;-89
2022/12/05 12:23:04;;;;;;;25.07;16.23;;;;;;;;;;6493934;28;20188;-90
2022/12/05 12:26:20;;;;;;;28.57;18.50;;;;;;;;;;6576562;28;20314;-89
2022/12/05 12:29:51;;;;;;;29.10;18.50;;;;;;;;;;6594600;28;20173;-89
2022/12/05 12:33:08;;;;;;;35.10;21.77;;;;;;;;;;6595891;28;20235;-89
2022/12/05 12:36:26;;;;;;;26.87;16.13;;;;;;;;;;6593917;28;20247;-89
2022/12/05 12:39:36;;;;;;;35.40;22.00;;;;;;;;;;6593309;28;20558;-89
2022/12/05 12:42:46;;;;;;;28.43;18.67;;;;;;;;;;6575718;28;20182;-89
2022/12/05 12:45:59;;;;;;;24.80;17.03;;;;;;;;;;6593636;28;20188;-89
2022/12/05 12:49:21;;;;;;;32.43;18.97;;;;;;;;;;6567571;28;20631;-89
2022/12/05 12:52:45;;;;;;;32.47;18.83;;;;;;;;;;6591017;28;20500;-89
2022/12/05 12:56:14;;;;;;;29.17;16.93;;;;;;;;;;6588275;28;20254;-89
2022/12/05 12:59:43;;;;;;;27.37;18.47;;;;;;;;;;6575146;28;20191;-88
2022/12/05 13:03:09;;;;;;;33.23;20.80;;;;;;;;;;6590978;28;20200;-90
2022/12/05 13:06:25;;;;;;;33.43;21.90;;;;;;;;;;6585163;28;20318;-89
2022/12/05 13:09:56;;;;;;;34.57;20.10;;;;;;;;;;6572637;28;20234;-89
2022/12/05 13:13:09;;;;;;;34.97;21.80;;;;;;;;;;6592174;28;20199;-89
2022/12/05 13:16:25;;;;;;;37.67;23.83;;;;;;;;;;6592874;28;20270;-89
2022/12/05 13:19:43;;;;;;;28.93;18.37;;;;;;;;;;6594440;28;20572;-89
2022/12/05 13:22:53;;;;;;;25.93;17.27;;;;;;;;;;6591156;28;20215;-89
2022/12/05 13:26:07;;;;;;;29.37;18.63;;;;;;;;;;6576247;28;20181;-89
2022/12/05 13:29:20;;;;;;;36.20;21.87;;;;;;;;;;6593981;28;20267;-88
2022/12/05 13:32:30;;;;;;;34.97;20.07;;;;;;;;;;6594407;28;20248;-88
2022/12/05 13:42:41;;;;;;;20.93;14.77;;;;;;;;;;6593536;28;20669;-88
2022/12/05 13:46:01;;;;;;;28.20;19.90;;;;;;;;;;6577906;28;20176;-88
2022/12/05 13:49:25;;;;;;;25.63;18.37;;;;;;;;;;6595347;28;20519;-88
2022/12/05 13:52:40;;;;;;;30.93;19.77;;;;;;;;;;6595218;28;20191;-88
2022/12/05 13:55:54;;;;;;;31.13;19.83;;;;;;;;;;6576993;28;20255;-89
2022/12/05 13:59:07;;;;;;;34.73;19.77;;;;;;;;;;6595492;28;20164;-88
2022/12/05 14:02:37;;;;;;;32.47;20.00;;;;;;;;;;6594218;28;20330;-88
2022/12/05 14:05:49;;;;;;;29.77;20.63;;;;;;;;;;6562821;28;20707;-88
2022/12/05 14:09:00;;;;;;;28.80;19.90;;;;;;;;;;6576780;28;20573;-88
2022/12/05 14:12:13;;;;;;;31.77;20.00;;;;;;;;;;6595086;28;20176;-88
2022/12/05 14:15:25;;;;;;;26.37;17.20;;;;;;;;;;6594632;28;20164;-88
2022/12/05 14:18:41;;;;;;;30.47;20.10;;;;;;;;;;6594293;28;20571;-88
2022/12/05 14:21:54;;;;;;;30.73;19.23;;;;;;;;;;6593930;28;20204;-88
2022/12/05 14:25:10;;;;;;;33.87;19.93;;;;;;;;;;6571888;28;20200;-90
2022/12/05 14:28:24;;;;;;;31.63;19.57;;;;;;;;;;6569069;28;20168;-89
2022/12/05 14:31:41;;;;;;;34.00;21.67;;;;;;;;;;6550657;28;20212;-89
2022/12/05 14:35:10;;;;;;;38.33;21.73;;;;;;;;;;6569829;28;20260;-89
2022/12/05 14:38:27;;;;;;;33.23;19.43;;;;;;;;;;6568703;28;20189;-89
2022/12/05 14:41:38;;;;;;;31.17;20.33;;;;;;;;;;6569053;28;20205;-88
2022/12/05 14:44:49;;;;;;;30.87;20.03;;;;;;;;;;6568700;28;20561;-89
2022/12/05 14:48:04;;;;;;;36.67;23.03;;;;;;;;;;6568342;28;20173;-89
2022/12/05 14:51:29;;;;;;;38.67;24.57;;;;;;;;;;6568606;28;20173;-90
2022/12/05 14:54:40;;;;;;;36.83;22.80;;;;;;;;;;6568061;28;20264;-90
2022/12/05 14:57:50;;;;;;;34.10;21.90;;;;;;;;;;6555272;28;20234;-90
2022/12/05 15:01:05;;;;;;;40.80;23.47;;;;;;;;;;6578548;28;20211;-89
2022/12/05 15:04:16;;;;;;;39.83;24.07;;;;;;;;;;6572806;28;20231;-89
2022/12/05 15:07:34;;;;;;;40.47;24.13;;;;;;;;;;6597170;28;20200;-89
2022/12/05 15:10:45;;;;;;;37.57;24.13;;;;;;;;;;6578824;28;20207;-89
2022/12/05 15:14:01;;;;;;;40.33;25.50;;;;;;;;;;6596799;28;20172;-89
2022/12/05 15:17:15;;;;;;;37.57;21.63;;;;;;;;;;6580819;28;20169;-89
2022/12/05 15:20:32;;;;;;;41.20;25.03;;;;;;;;;;6579653;28;20662;-89
2022/12/05 15:23:44;;;;;;;45.47;27.20;;;;;;;;;;6578957;28;20177;-89
2022/12/05 15:26:57;;;;;;;41.97;26.13;;;;;;;;;;6596807;28;20203;-89
2022/12/05 15:30:17;;;;;;;55.47;32.30;;;;;;;;;;6594410;28;20230;-89
2022/12/05 15:33:27;;;;;;;35.30;22.67;;;;;;;;;;6593741;28;20227;-89
2022/12/05 15:36:41;;;;;;;38.47;23.67;;;;;;;;;;6577963;28;20172;-89
2022/12/05 15:39:52;;;;;;;81.73;43.90;;;;;;;;;;6597790;28;20196;-88
2022/12/05 15:43:22;;;;;;;52.97;33.43;;;;;;;;;;6598085;28;20559;-89
2022/12/05 15:46:35;;;;;;;45.97;28.37;;;;;;;;;;6595976;28;20183;-88
2022/12/05 15:49:45;;;;;;;55.17;36.90;;;;;;;;;;6579845;28;20714;-90
2022/12/05 15:53:02;;;;;;;39.17;24.57;;;;;;;;;;6598757;28;20169;-88
2022/12/05 15:56:15;;;;;;;43.37;24.17;;;;;;;;;;6598007;28;20169;-89
2022/12/05 15:59:35;;;;;;;38.50;22.57;;;;;;;;;;6579627;28;20639;-89
2022/12/05 16:02:49;;;;;;;33.57;20.70;;;;;;;;;;6595661;28;20215;-89
2022/12/05 16:06:19;;;;;;;43.23;24.33;;;;;;;;;;6598017;28;20180;-88
2022/12/05 16:09:31;;;;;;;39.63;23.83;;;;;;;;;;6577510;28;20189;-89
2022/12/05 16:12:42;;;;;;;43.50;25.80;;;;;;;;;;6596381;28;20633;-88
2022/12/05 16:15:53;;;;;;;41.33;24.67;;;;;;;;;;6597533;28;20283;-88
2022/12/05 16:19:05;;;;;;;38.93;24.00;;;;;;;;;;6595057;28;20176;-88
2022/12/05 16:22:15;;;;;;;39.83;24.83;;;;;;;;;;6580207;28;20204;-88
2022/12/05 16:25:29;;;;;;;39.90;24.83;;;;;;;;;;6598018;28;20179;-88
2022/12/05 16:28:40;;;;;;;40.20;25.17;;;;;;;;;;6596971;28;20192;-89
2022/12/05 16:31:53;;;;;;;40.80;26.90;;;;;;;;;;6580036;28;20168;-89
2022/12/05 16:35:23;;;;;;;40.63;26.57;;;;;;;;;;6597553;28;20232;-89
2022/12/05 16:38:33;;;;;;;35.13;22.97;;;;;;;;;;6598110;28;20192;-89
2022/12/05 16:41:44;;;;;;;39.03;23.27;;;;;;;;;;6597988;28;20212;-88
2022/12/05 16:45:00;;;;;;;37.10;24.17;;;;;;;;;;6596791;28;20603;-90
2022/12/05 16:48:21;;;;;;;40.50;22.73;;;;;;;;;;6595473;28;20188;-89
2022/12/05 16:51:39;;;;;;;38.63;24.10;;;;;;;;;;6594768;28;20172;-89
2022/12/05 16:54:51;;;;;;;34.97;21.80;;;;;;;;;;6594374;28;20164;-90
2022/12/05 16:58:01;;;;;;;39.23;24.90;;;;;;;;;;6596829;28;20492;-89
2022/12/05 17:01:19;;;;;;;42.93;24.67;;;;;;;;;;6596213;28;20208;-89
2022/12/05 17:04:30;;;;;;;40.80;25.90;;;;;;;;;;6594619;28;20242;-89
2022/12/05 17:07:40;;;;;;;41.63;26.53;;;;;;;;;;6597152;28;20251;-89
2022/12/05 17:10:51;;;;;;;35.67;22.77;;;;;;;;;;6590992;28;20173;-89
2022/12/05 17:14:01;;;;;;;36.07;24.13;;;;;;;;;;6596382;28;20165;-89
2022/12/05 17:17:12;;;;;;;58.00;30.70;;;;;;;;;;6596068;28;20558;-89
2022/12/05 17:20:22;;;;;;;47.30;29.60;;;;;;;;;;6596552;28;20200;-89
2022/12/05 17:23:33;;;;;;;46.27;29.03;;;;;;;;;;6595704;28;20164;-89
2022/12/05 17:26:44;;;;;;;34.60;21.90;;;;;;;;;;6596828;28;20168;-89
2022/12/05 17:29:54;;;;;;;40.10;24.47;;;;;;;;;;6597001;28;20545;-89
2022/12/05 17:33:05;;;;;;;49.83;28.07;;;;;;;;;;6596567;28;20224;-89
2022/12/05 17:36:19;;;;;;;52.13;31.00;;;;;;;;;;6596104;28;20207;-89
2022/12/05 17:39:29;;;;;;;45.70;29.43;;;;;;;;;;6572522;28;20659;-89
2022/12/05 17:42:40;;;;;;;44.90;27.33;;;;;;;;;;6595248;28;20262;-90
2022/12/05 17:45:51;;;;;;;53.17;31.10;;;;;;;;;;6577639;28;20226;-89
2022/12/05 17:49:01;;;;;;;43.27;28.27;;;;;;;;;;6595872;28;20173;-89
2022/12/05 17:52:12;;;;;;;40.60;25.60;;;;;;;;;;6595268;28;20183;-89
2022/12/05 17:55:23;;;;;;;50.50;30.93;;;;;;;;;;6594938;28;20535;-89
2022/12/05 17:58:34;;;;;;;36.30;21.73;;;;;;;;;;6595453;28;20173;-90
2022/12/05 18:01:44;;;;;;;34.37;22.10;;;;;;;;;;6595131;28;20249;-89
2022/12/05 18:04:54;;;;;;;37.00;24.87;;;;;;;;;;6594320;28;20172;-89
2022/12/05 18:08:05;;;;;;;25.03;16.67;;;;;;;;;;6594179;28;20539;-89
2022/12/05 18:11:15;;;;;;;29.87;19.43;;;;;;;;;;6590436;28;20169;-90
2022/12/05 18:14:27;;;;;;;34.83;19.97;;;;;;;;;;6595510;28;20174;-90
2022/12/05 18:17:37;;;;;;;33.03;21.03;;;;;;;;;;6577748;28;20169;-90
2022/12/05 18:20:48;;;;;;;35.70;20.60;;;;;;;;;;6595269;28;20287;-90
2022/12/05 18:23:59;;;;;;;31.50;20.13;;;;;;;;;;6594861;28;20663;-90
2022/12/05 18:27:10;;;;;;;25.83;17.57;;;;;;;;;;6577235;28;20620;-89
2022/12/05 18:30:21;;;;;;;30.67;19.50;;;;;;;;;;6568672;28;20527;-89
2022/12/05 18:33:31;;;;;;;39.80;24.00;;;;;;;;;;6593673;28;20224;-89
2022/12/05 18:36:41;;;;;;;34.57;23.37;;;;;;;;;;6598537;28;20243;-90
2022/12/05 18:39:52;;;;;;;35.03;23.33;;;;;;;;;;6600010;28;20626;-90
2022/12/05 18:43:02;;;;;;;33.57;21.47;;;;;;;;;;6599737;28;20505;-89
2022/12/05 18:46:12;;;;;;;34.33;21.30;;;;;;;;;;6599909;28;20279;-89
2022/12/05 18:49:23;;;;;;;27.87;18.27;;;;;;;;;;6583605;28;20168;-90
2022/12/05 18:52:35;;;;;;;25.40;17.10;;;;;;;;;;6582878;28;20215;-90
2022/12/05 18:55:45;;;;;;;25.97;16.20;;;;;;;;;;6600221;28;20528;-89
2022/12/05 18:58:58;;;;;;;27.23;18.23;;;;;;;;;;6600628;28;20203;-90
2022/12/05 19:02:10;;;;;;;22.63;14.97;;;;;;;;;;6600354;28;20266;-89